sensor_id;sensor_type;location;lat;lon;timestamp;P1;P2;P0
73825;PMS5003;64145;55.060;73.168;2023-04-24T00:01:20;14.00;12.00;5.75
73825;PMS5003;64145;55.060;73.168;2023-04-24T00:03:46;14.00;12.00;6.00
73825;PMS5003;64145;55.060;73.168;2023-04-24T00:06:21;20.75;18.00;11.50
73825;PMS5003;64145;55.060;73.168;2023-04-24T00:11:35;33.00;29.00;18.00
73825;PMS5003;64145;55.060;73.168;2023-04-24T00:14:11;35.50;31.00;20.00
73825;PMS5003;64145;55.060;73.168;2023-04-24T00:16:36;32.33;29.00;18.00
73825;PMS5003;64145;55.060;73.168;2023-04-24T00:19:02;26.00;22.67;16.00
73825;PMS5003;64145;55.060;73.168;2023-04-24T00:21:27;24.00;21.33;14.00
73825;PMS5003;64145;55.060;73.168;2023-04-24T00:24:03;22.50;20.50;14.50
73825;PMS5003;64145;55.060;73.168;2023-04-24T00:26:29;22.00;21.00;13.00
73825;PMS5003;64145;55.060;73.168;2023-04-24T00:29:04;22.00;20.00;13.00
73825;PMS5003;64145;55.060;73.168;2023-04-24T00:31:35;20.00;18.25;10.25
73825;PMS5003;64145;55.060;73.168;2023-04-24T00:34:06;19.00;16.00;8.00
73825;PMS5003;64145;55.060;73.168;2023-04-24T00:36:32;18.00;15.00;8.00
73825;PMS5003;64145;55.060;73.168;2023-04-24T00:38:58;16.00;13.00;6.00
73825;PMS5003;64145;55.060;73.168;2023-04-24T00:41:27;16.00;13.00;5.00
73825;PMS5003;64145;55.060;73.168;2023-04-24T00:44:02;16.00;15.00;6.75
73825;PMS5003;64145;55.060;73.168;2023-04-24T00:46:28;18.33;17.33;9.00
73825;PMS5003;64145;55.060;73.168;2023-04-24T00:48:53;19.33;18.33;9.00
73825;PMS5003;64145;55.060;73.168;2023-04-24T00:51:25;20.00;18.00;9.00
73825;PMS5003;64145;55.060;73.168;2023-04-24T00:53:56;19.00;18.00;11.00
73825;PMS5003;64145;55.060;73.168;2023-04-24T00:56:21;18.33;17.67;9.33
73825;PMS5003;64145;55.060;73.168;2023-04-24T00:58:48;19.00;19.00;9.00
73825;PMS5003;64145;55.060;73.168;2023-04-24T01:01:14;20.00;19.00;9.25
73825;PMS5003;64145;55.060;73.168;2023-04-24T01:03:40;20.33;18.00;9.00
73825;PMS5003;64145;55.060;73.168;2023-04-24T01:06:05;18.00;18.00;8.00
73825;PMS5003;64145;55.060;73.168;2023-04-24T01:08:32;18.00;16.00;6.50
73825;PMS5003;64145;55.060;73.168;2023-04-24T01:10:58;19.50;16.50;8.75
73825;PMS5003;64145;55.060;73.168;2023-04-24T01:13:29;21.00;19.00;9.00
73825;PMS5003;64145;55.060;73.168;2023-04-24T01:15:54;21.00;18.00;10.33
73825;PMS5003;64145;55.060;73.168;2023-04-24T01:18:20;18.00;16.67;8.00
73825;PMS5003;64145;55.060;73.168;2023-04-24T01:23:40;13.00;10.50;6.00
73825;PMS5003;64145;55.060;73.168;2023-04-24T01:26:11;14.00;11.75;7.00
73825;PMS5003;64145;55.060;73.168;2023-04-24T01:28:37;15.00;13.25;7.00
73825;PMS5003;64145;55.060;73.168;2023-04-24T01:31:03;17.00;14.00;7.00
73825;PMS5003;64145;55.060;73.168;2023-04-24T01:36:23;16.00;15.00;6.00
73825;PMS5003;64145;55.060;73.168;2023-04-24T01:39:07;14.00;13.00;4.00
73825;PMS5003;64145;55.060;73.168;2023-04-24T01:41:33;10.00;9.00;4.67
73825;PMS5003;64145;55.060;73.168;2023-04-24T01:44:08;6.50;6.00;4.00
73825;PMS5003;64145;55.060;73.168;2023-04-24T01:46:34;6.00;6.00;3.33
73825;PMS5003;64145;55.060;73.168;2023-04-24T01:49:00;7.75;7.75;4.00
73825;PMS5003;64145;55.060;73.168;2023-04-24T01:51:31;8.75;8.75;5.00
73825;PMS5003;64145;55.060;73.168;2023-04-24T01:56:42;12.50;10.00;7.00
73825;PMS5003;64145;55.060;73.168;2023-04-24T01:59:17;13.00;11.00;6.00
73825;PMS5003;64145;55.060;73.168;2023-04-24T02:01:48;13.00;11.25;4.50
73825;PMS5003;64145;55.060;73.168;2023-04-24T02:04:14;10.00;9.00;4.00
73825;PMS5003;64145;55.060;73.168;2023-04-24T02:06:50;12.50;12.00;7.00
73825;PMS5003;64145;55.060;73.168;2023-04-24T02:09:39;12.00;11.00;7.00
73825;PMS5003;64145;55.060;73.168;2023-04-24T02:12:23;12.50;10.50;6.25
73825;PMS5003;64145;55.060;73.168;2023-04-24T02:14:54;14.50;11.25;5.25
73825;PMS5003;64145;55.060;73.168;2023-04-24T02:17:19;13.00;10.00;5.00
73825;PMS5003;64145;55.060;73.168;2023-04-24T02:19:45;12.33;10.00;4.00
73825;PMS5003;64145;55.060;73.168;2023-04-24T02:22:11;10.25;9.00;5.00
73825;PMS5003;64145;55.060;73.168;2023-04-24T02:24:37;10.33;8.67;5.00
73825;PMS5003;64145;55.060;73.168;2023-04-24T02:27:03;10.75;9.25;5.00
73825;PMS5003;64145;55.060;73.168;2023-04-24T02:32:13;17.25;16.25;7.00
73825;PMS5003;64145;55.060;73.168;2023-04-24T02:34:40;12.75;11.75;4.50
73825;PMS5003;64145;55.060;73.168;2023-04-24T02:37:06;12.33;11.00;6.00
73825;PMS5003;64145;55.060;73.168;2023-04-24T02:39:31;16.00;13.33;6.00
73825;PMS5003;64145;55.060;73.168;2023-04-24T02:41:57;18.67;15.33;7.67
73825;PMS5003;64145;55.060;73.168;2023-04-24T02:44:23;17.00;14.00;6.00
73825;PMS5003;64145;55.060;73.168;2023-04-24T02:46:48;15.00;13.33;7.00
73825;PMS5003;64145;55.060;73.168;2023-04-24T02:49:14;13.00;10.00;6.00
73825;PMS5003;64145;55.060;73.168;2023-04-24T02:51:40;8.75;7.25;4.00
73825;PMS5003;64145;55.060;73.168;2023-04-24T02:54:09;9.00;9.00;5.00
73825;PMS5003;64145;55.060;73.168;2023-04-24T02:56:42;14.00;14.00;7.50
73825;PMS5003;64145;55.060;73.168;2023-04-24T02:59:08;15.33;13.00;6.67
73825;PMS5003;64145;55.060;73.168;2023-04-24T03:01:33;13.33;12.00;6.00
73825;PMS5003;64145;55.060;73.168;2023-04-24T03:03:59;19.00;14.00;8.00
73825;PMS5003;64145;55.060;73.168;2023-04-24T03:06:33;17.00;14.00;6.00
73825;PMS5003;64145;55.060;73.168;2023-04-24T03:11:49;14.50;13.00;5.50
73825;PMS5003;64145;55.060;73.168;2023-04-24T03:16:59;17.00;14.50;6.00
73825;PMS5003;64145;55.060;73.168;2023-04-24T03:19:25;16.00;15.00;7.00
73825;PMS5003;64145;55.060;73.168;2023-04-24T03:22:02;16.00;15.00;6.25
73825;PMS5003;64145;55.060;73.168;2023-04-24T03:24:28;15.25;14.75;6.00
73825;PMS5003;64145;55.060;73.168;2023-04-24T03:26:53;14.33;13.00;5.67
73825;PMS5003;64145;55.060;73.168;2023-04-24T03:29:19;14.33;11.00;8.00
73825;PMS5003;64145;55.060;73.168;2023-04-24T03:34:58;17.00;13.50;7.00
73825;PMS5003;64145;55.060;73.168;2023-04-24T03:40:08;16.00;13.00;7.25
73825;PMS5003;64145;55.060;73.168;2023-04-24T03:42:33;17.00;14.00;7.75
73825;PMS5003;64145;55.060;73.168;2023-04-24T03:44:59;15.00;14.00;7.00
73825;PMS5003;64145;55.060;73.168;2023-04-24T03:47:29;15.00;13.75;7.00
73825;PMS5003;64145;55.060;73.168;2023-04-24T03:49:55;16.00;14.00;7.00
73825;PMS5003;64145;55.060;73.168;2023-04-24T03:52:21;17.00;16.00;7.67
73825;PMS5003;64145;55.060;73.168;2023-04-24T03:54:47;16.75;14.50;7.00
73825;PMS5003;64145;55.060;73.168;2023-04-24T03:57:13;17.33;16.00;6.33
73825;PMS5003;64145;55.060;73.168;2023-04-24T03:59:57;17.75;17.00;6.00
73825;PMS5003;64145;55.060;73.168;2023-04-24T04:02:24;15.75;15.25;6.75
73825;PMS5003;64145;55.060;73.168;2023-04-24T04:04:49;17.67;15.33;8.00
73825;PMS5003;64145;55.060;73.168;2023-04-24T04:10:09;15.00;15.00;7.00
73825;PMS5003;64145;55.060;73.168;2023-04-24T04:15:19;16.00;14.50;5.25
73825;PMS5003;64145;55.060;73.168;2023-04-24T04:17:54;15.25;13.50;6.00
73825;PMS5003;64145;55.060;73.168;2023-04-24T04:20:38;14.50;13.00;5.00
73825;PMS5003;64145;55.060;73.168;2023-04-24T04:23:04;13.33;12.33;5.67
73825;PMS5003;64145;55.060;73.168;2023-04-24T04:25:30;13.33;12.33;4.00
73825;PMS5003;64145;55.060;73.168;2023-04-24T04:27:55;12.00;11.00;6.00
73825;PMS5003;64145;55.060;73.168;2023-04-24T04:30:23;12.00;11.25;6.00
73825;PMS5003;64145;55.060;73.168;2023-04-24T04:35:33;14.00;13.00;6.00
73825;PMS5003;64145;55.060;73.168;2023-04-24T04:37:59;13.33;11.00;6.00
73825;PMS5003;64145;55.060;73.168;2023-04-24T04:40:24;12.00;11.00;5.00
73825;PMS5003;64145;55.060;73.168;2023-04-24T04:42:50;13.00;11.00;6.00
73825;PMS5003;64145;55.060;73.168;2023-04-24T04:45:18;10.00;8.00;5.00
73825;PMS5003;64145;55.060;73.168;2023-04-24T04:47:56;11.00;10.25;6.00
73825;PMS5003;64145;55.060;73.168;2023-04-24T04:50:29;16.25;13.25;6.50
73825;PMS5003;64145;55.060;73.168;2023-04-24T04:52:58;17.50;15.00;7.00
73825;PMS5003;64145;55.060;73.168;2023-04-24T04:58:38;18.00;13.75;7.50
73825;PMS5003;64145;55.060;73.168;2023-04-24T05:01:05;22.00;18.75;12.00
73825;PMS5003;64145;55.060;73.168;2023-04-24T05:03:30;17.33;17.33;6.67
73825;PMS5003;64145;55.060;73.168;2023-04-24T05:05:57;17.00;14.00;4.00
73825;PMS5003;64145;55.060;73.168;2023-04-24T05:08:22;14.00;10.75;6.00
73825;PMS5003;64145;55.060;73.168;2023-04-24T05:11:16;11.00;8.00;4.00
73825;PMS5003;64145;55.060;73.168;2023-04-24T05:16:26;7.75;7.50;4.00
73825;PMS5003;64145;55.060;73.168;2023-04-24T05:19:01;10.25;10.00;5.25
73825;PMS5003;64145;55.060;73.168;2023-04-24T05:21:27;10.00;8.00;5.00
73825;PMS5003;64145;55.060;73.168;2023-04-24T05:23:52;10.67;9.67;6.00
73825;PMS5003;64145;55.060;73.168;2023-04-24T05:26:18;11.00;10.67;6.00
73825;PMS5003;64145;55.060;73.168;2023-04-24T05:31:29;11.00;9.50;6.00
73825;PMS5003;64145;55.060;73.168;2023-04-24T05:33:54;11.00;8.00;5.33
73825;PMS5003;64145;55.060;73.168;2023-04-24T05:36:20;9.00;7.33;4.00
73825;PMS5003;64145;55.060;73.168;2023-04-24T05:41:31;7.00;6.00;3.00
73825;PMS5003;64145;55.060;73.168;2023-04-24T05:43:56;6.00;6.00;3.00
73825;PMS5003;64145;55.060;73.168;2023-04-24T05:46:22;10.00;8.00;4.00
73825;PMS5003;64145;55.060;73.168;2023-04-24T05:48:47;4.33;4.00;1.00
73825;PMS5003;64145;55.060;73.168;2023-04-24T05:51:41;7.75;7.50;2.75
73825;PMS5003;64145;55.060;73.168;2023-04-24T05:54:07;18.00;15.67;8.00
73825;PMS5003;64145;55.060;73.168;2023-04-24T05:56:42;19.00;17.00;7.00
73825;PMS5003;64145;55.060;73.168;2023-04-24T05:59:08;11.67;9.00;3.00
73825;PMS5003;64145;55.060;73.168;2023-04-24T06:01:44;4.75;4.75;2.00
73825;PMS5003;64145;55.060;73.168;2023-04-24T06:04:09;6.67;4.67;3.67
73825;PMS5003;64145;55.060;73.168;2023-04-24T06:06:35;8.00;5.33;3.00
73825;PMS5003;64145;55.060;73.168;2023-04-24T06:09:01;7.00;7.00;3.00
73825;PMS5003;64145;55.060;73.168;2023-04-24T06:11:38;5.00;5.00;2.00
73825;PMS5003;64145;55.060;73.168;2023-04-24T06:14:03;7.00;5.00;3.00
73825;PMS5003;64145;55.060;73.168;2023-04-24T06:16:41;6.25;5.50;3.00
73825;PMS5003;64145;55.060;73.168;2023-04-24T06:19:17;6.00;6.00;3.00
73825;PMS5003;64145;55.060;73.168;2023-04-24T06:21:47;4.00;4.00;3.00
73825;PMS5003;64145;55.060;73.168;2023-04-24T06:24:31;3.50;3.00;2.00
73825;PMS5003;64145;55.060;73.168;2023-04-24T06:27:20;3.00;3.00;2.00
73825;PMS5003;64145;55.060;73.168;2023-04-24T06:29:45;3.67;3.67;2.00
73825;PMS5003;64145;55.060;73.168;2023-04-24T06:32:11;5.00;5.00;3.00
73825;PMS5003;64145;55.060;73.168;2023-04-24T06:34:46;6.00;5.00;2.75
73825;PMS5003;64145;55.060;73.168;2023-04-24T06:37:11;5.00;4.33;2.00
73825;PMS5003;64145;55.060;73.168;2023-04-24T06:39:37;4.67;4.00;2.67
73825;PMS5003;64145;55.060;73.168;2023-04-24T06:42:02;4.00;4.00;2.00
73825;PMS5003;64145;55.060;73.168;2023-04-24T06:44:28;5.00;5.00;3.00
73825;PMS5003;64145;55.060;73.168;2023-04-24T06:46:53;5.00;5.00;1.67
73825;PMS5003;64145;55.060;73.168;2023-04-24T06:49:24;6.00;5.25;2.00
73825;PMS5003;64145;55.060;73.168;2023-04-24T06:51:50;4.00;4.00;1.00
73825;PMS5003;64145;55.060;73.168;2023-04-24T06:54:15;4.67;4.67;1.00
73825;PMS5003;64145;55.060;73.168;2023-04-24T06:56:41;4.00;4.00;1.00
73825;PMS5003;64145;55.060;73.168;2023-04-24T06:59:07;6.00;5.00;3.00
73825;PMS5003;64145;55.060;73.168;2023-04-24T07:01:32;4.00;4.00;1.67
73825;PMS5003;64145;55.060;73.168;2023-04-24T07:06:55;4.00;4.00;0.00
73825;PMS5003;64145;55.060;73.168;2023-04-24T07:09:23;6.00;5.00;0.25
73825;PMS5003;64145;55.060;73.168;2023-04-24T07:11:49;4.50;4.50;2.50
73825;PMS5003;64145;55.060;73.168;2023-04-24T07:14:15;4.00;4.00;1.00
73825;PMS5003;64145;55.060;73.168;2023-04-24T07:16:41;5.00;5.00;2.00
73825;PMS5003;64145;55.060;73.168;2023-04-24T07:19:07;3.00;3.00;1.00
73825;PMS5003;64145;55.060;73.168;2023-04-24T07:24:16;3.00;3.00;0.00
73825;PMS5003;64145;55.060;73.168;2023-04-24T07:26:42;2.00;2.00;1.00
73825;PMS5003;64145;55.060;73.168;2023-04-24T07:29:13;4.25;2.50;0.25
73825;PMS5003;64145;55.060;73.168;2023-04-24T07:31:39;5.00;4.00;2.00
73825;PMS5003;64145;55.060;73.168;2023-04-24T07:34:16;6.50;6.00;3.75
73825;PMS5003;64145;55.060;73.168;2023-04-24T07:36:42;5.33;5.33;3.00
73825;PMS5003;64145;55.060;73.168;2023-04-24T07:39:07;4.33;3.33;2.00
73825;PMS5003;64145;55.060;73.168;2023-04-24T07:41:43;6.00;5.00;2.00
73825;PMS5003;64145;55.060;73.168;2023-04-24T07:44:13;5.00;3.25;2.00
73825;PMS5003;64145;55.060;73.168;2023-04-24T07:46:40;5.00;5.00;2.00
73825;PMS5003;64145;55.060;73.168;2023-04-24T07:49:05;4.00;3.00;0.00
73825;PMS5003;64145;55.060;73.168;2023-04-24T07:51:36;3.00;3.00;0.00
73825;PMS5003;64145;55.060;73.168;2023-04-24T07:54:20;5.00;5.00;0.00
73825;PMS5003;64145;55.060;73.168;2023-04-24T07:59:35;3.75;3.75;0.25
73825;PMS5003;64145;55.060;73.168;2023-04-24T08:02:05;2.00;2.00;0.00
73825;PMS5003;64145;55.060;73.168;2023-04-24T08:04:31;4.00;2.00;0.00
73825;PMS5003;64145;55.060;73.168;2023-04-24T08:09:52;4.00;3.00;0.00
73825;PMS5003;64145;55.060;73.168;2023-04-24T08:12:22;4.00;3.00;0.00
73825;PMS5003;64145;55.060;73.168;2023-04-24T08:14:48;4.00;4.00;0.00
73825;PMS5003;64145;55.060;73.168;2023-04-24T08:17:32;4.00;4.00;0.75
73825;PMS5003;64145;55.060;73.168;2023-04-24T08:19:57;4.00;4.00;1.00
73825;PMS5003;64145;55.060;73.168;2023-04-24T08:22:42;2.00;2.00;0.00
73825;PMS5003;64145;55.060;73.168;2023-04-24T08:27:52;2.00;2.00;0.00
73825;PMS5003;64145;55.060;73.168;2023-04-24T08:30:18;5.00;3.67;0.00
73825;PMS5003;64145;55.060;73.168;2023-04-24T08:35:28;4.00;4.00;2.00
73825;PMS5003;64145;55.060;73.168;2023-04-24T08:37:53;4.67;4.00;2.00
73825;PMS5003;64145;55.060;73.168;2023-04-24T08:40:27;5.00;5.00;2.00
73825;PMS5003;64145;55.060;73.168;2023-04-24T08:42:54;4.00;3.00;1.00
73825;PMS5003;64145;55.060;73.168;2023-04-24T08:51:05;4.75;4.00;3.00
73825;PMS5003;64145;55.060;73.168;2023-04-24T08:53:42;4.00;4.00;2.00
73825;PMS5003;64145;55.060;73.168;2023-04-24T08:56:08;4.00;3.00;0.00
73825;PMS5003;64145;55.060;73.168;2023-04-24T08:58:34;1.75;1.75;0.00
73825;PMS5003;64145;55.060;73.168;2023-04-24T09:01:00;0.00;0.00;0.00
73825;PMS5003;64145;55.060;73.168;2023-04-24T09:03:30;0.00;0.00;0.00
73825;PMS5003;64145;55.060;73.168;2023-04-24T09:05:56;0.00;0.00;0.00
73825;PMS5003;64145;55.060;73.168;2023-04-24T09:08:24;1.00;1.00;0.00
73825;PMS5003;64145;55.060;73.168;2023-04-24T09:10:49;1.00;1.00;0.00
73825;PMS5003;64145;55.060;73.168;2023-04-24T09:13:33;2.00;1.00;0.00
73825;PMS5003;64145;55.060;73.168;2023-04-24T09:15:59;2.00;2.00;0.00
73825;PMS5003;64145;55.060;73.168;2023-04-24T09:18:30;3.00;2.00;1.00
73825;PMS5003;64145;55.060;73.168;2023-04-24T09:21:00;2.00;1.00;0.00
73825;PMS5003;64145;55.060;73.168;2023-04-24T09:23:32;1.00;1.00;0.00
73825;PMS5003;64145;55.060;73.168;2023-04-24T09:26:16;1.00;1.00;0.00
73825;PMS5003;64145;55.060;73.168;2023-04-24T09:28:41;1.00;0.00;0.00
73825;PMS5003;64145;55.060;73.168;2023-04-24T09:31:20;2.00;1.00;0.00
73825;PMS5003;64145;55.060;73.168;2023-04-24T09:33:57;2.00;1.25;0.00
73825;PMS5003;64145;55.060;73.168;2023-04-24T09:36:30;3.00;2.00;0.00
73825;PMS5003;64145;55.060;73.168;2023-04-24T09:42:02;5.50;5.50;1.00
73825;PMS5003;64145;55.060;73.168;2023-04-24T09:44:34;6.50;6.50;3.50
73825;PMS5003;64145;55.060;73.168;2023-04-24T09:46:59;8.75;8.75;3.50
73825;PMS5003;64145;55.060;73.168;2023-04-24T09:49:29;4.75;4.75;1.00
73825;PMS5003;64145;55.060;73.168;2023-04-24T09:52:07;3.75;3.50;0.00
73825;PMS5003;64145;55.060;73.168;2023-04-24T09:57:17;1.75;1.75;0.00
73825;PMS5003;64145;55.060;73.168;2023-04-24T10:02:27;0.00;0.00;0.00
73825;PMS5003;64145;55.060;73.168;2023-04-24T10:05:06;0.00;0.00;0.00
73825;PMS5003;64145;55.060;73.168;2023-04-24T10:07:32;0.00;0.00;0.00
73825;PMS5003;64145;55.060;73.168;2023-04-24T10:09:58;0.00;0.00;0.00
73825;PMS5003;64145;55.060;73.168;2023-04-24T10:12:23;0.00;0.00;0.00
73825;PMS5003;64145;55.060;73.168;2023-04-24T10:14:50;0.00;0.00;0.00
73825;PMS5003;64145;55.060;73.168;2023-04-24T10:17:15;0.00;0.00;0.00
73825;PMS5003;64145;55.060;73.168;2023-04-24T10:22:35;0.00;0.00;0.00
73825;PMS5003;64145;55.060;73.168;2023-04-24T10:25:06;0.00;0.00;0.00
73825;PMS5003;64145;55.060;73.168;2023-04-24T10:27:42;0.00;0.00;0.00
73825;PMS5003;64145;55.060;73.168;2023-04-24T10:32:57;0.00;0.00;0.00
73825;PMS5003;64145;55.060;73.168;2023-04-24T10:35:23;0.00;0.00;0.00
73825;PMS5003;64145;55.060;73.168;2023-04-24T10:37:59;0.00;0.00;0.00
73825;PMS5003;64145;55.060;73.168;2023-04-24T10:40:27;0.00;0.00;0.00
73825;PMS5003;64145;55.060;73.168;2023-04-24T10:42:55;0.00;0.00;0.00
73825;PMS5003;64145;55.060;73.168;2023-04-24T10:45:21;0.00;0.00;0.00
73825;PMS5003;64145;55.060;73.168;2023-04-24T10:47:57;0.00;0.00;0.00
73825;PMS5003;64145;55.060;73.168;2023-04-24T10:50:24;0.00;0.00;0.00
73825;PMS5003;64145;55.060;73.168;2023-04-24T10:56:05;0.00;0.00;0.00
73825;PMS5003;64145;55.060;73.168;2023-04-24T10:58:43;0.00;0.00;0.00
73825;PMS5003;64145;55.060;73.168;2023-04-24T11:01:24;0.00;0.00;0.00
73825;PMS5003;64145;55.060;73.168;2023-04-24T11:03:53;0.00;0.00;0.00
73825;PMS5003;64145;55.060;73.168;2023-04-24T11:09:09;0.00;0.00;0.00
73825;PMS5003;64145;55.060;73.168;2023-04-24T11:11:38;2.25;0.25;0.00
73825;PMS5003;64145;55.060;73.168;2023-04-24T11:14:08;2.00;1.00;0.00
73825;PMS5003;64145;55.060;73.168;2023-04-24T11:16:53;0.00;0.00;0.00
73825;PMS5003;64145;55.060;73.168;2023-04-24T11:19:24;0.00;0.00;0.00
73825;PMS5003;64145;55.060;73.168;2023-04-24T11:22:03;0.00;0.00;0.00
73825;PMS5003;64145;55.060;73.168;2023-04-24T11:29:44;0.00;0.00;0.00
73825;PMS5003;64145;55.060;73.168;2023-04-24T11:32:17;0.00;0.00;0.00
73825;PMS5003;64145;55.060;73.168;2023-04-24T11:37:36;0.00;0.00;0.00
73825;PMS5003;64145;55.060;73.168;2023-04-24T11:40:12;0.00;0.00;0.00
73825;PMS5003;64145;55.060;73.168;2023-04-24T11:42:39;0.00;0.00;0.00
73825;PMS5003;64145;55.060;73.168;2023-04-24T11:45:15;0.00;0.00;0.00
73825;PMS5003;64145;55.060;73.168;2023-04-24T11:47:42;0.00;0.00;0.00
73825;PMS5003;64145;55.060;73.168;2023-04-24T11:50:26;0.00;0.00;0.00
73825;PMS5003;64145;55.060;73.168;2023-04-24T11:52:54;1.00;0.00;0.00
73825;PMS5003;64145;55.060;73.168;2023-04-24T11:57:57;5.50;5.50;3.00
73825;PMS5003;64145;55.060;73.168;2023-04-24T12:00:23;4.75;4.00;1.25
73825;PMS5003;64145;55.060;73.168;2023-04-24T12:02:49;1.75;1.75;0.00
73825;PMS5003;64145;55.060;73.168;2023-04-24T12:05:19;0.00;0.00;0.00
73825;PMS5003;64145;55.060;73.168;2023-04-24T12:07:44;0.25;0.00;0.00
73825;PMS5003;64145;55.060;73.168;2023-04-24T12:10:19;1.00;0.00;0.00
73825;PMS5003;64145;55.060;73.168;2023-04-24T12:12:45;0.00;0.00;0.00
73825;PMS5003;64145;55.060;73.168;2023-04-24T12:15:11;0.00;0.00;0.00
73825;PMS5003;64145;55.060;73.168;2023-04-24T12:17:40;0.00;0.00;0.00
73825;PMS5003;64145;55.060;73.168;2023-04-24T12:20:12;0.00;0.00;0.00
73825;PMS5003;64145;55.060;73.168;2023-04-24T12:22:47;0.00;0.00;0.00
73825;PMS5003;64145;55.060;73.168;2023-04-24T12:25:21;0.00;0.00;0.00
73825;PMS5003;64145;55.060;73.168;2023-04-24T12:27:52;0.00;0.00;0.00
73825;PMS5003;64145;55.060;73.168;2023-04-24T12:30:18;0.00;0.00;0.00
73825;PMS5003;64145;55.060;73.168;2023-04-24T12:32:48;0.00;0.00;0.00
73825;PMS5003;64145;55.060;73.168;2023-04-24T12:35:18;10.50;10.50;7.75
73825;PMS5003;64145;55.060;73.168;2023-04-24T12:37:45;26.50;24.25;17.00
73825;PMS5003;64145;55.060;73.168;2023-04-24T12:40:10;67.33;53.00;35.00
73825;PMS5003;64145;55.060;73.168;2023-04-24T12:42:50;64.75;50.50;34.75
73825;PMS5003;64145;55.060;73.168;2023-04-24T12:45:16;86.50;80.75;52.50
73825;PMS5003;64145;55.060;73.168;2023-04-24T12:53:11;54.25;43.50;29.25
73825;PMS5003;64145;55.060;73.168;2023-04-24T12:55:36;44.25;37.00;24.00
73825;PMS5003;64145;55.060;73.168;2023-04-24T12:58:02;52.33;42.67;28.33
73825;PMS5003;64145;55.060;73.168;2023-04-24T13:00:28;29.00;26.75;16.75
73825;PMS5003;64145;55.060;73.168;2023-04-24T13:02:53;39.67;33.00;20.67
73825;PMS5003;64145;55.060;73.168;2023-04-24T13:05:42;17.00;16.50;9.50
73825;PMS5003;64145;55.060;73.168;2023-04-24T13:08:13;19.75;19.25;11.50
73825;PMS5003;64145;55.060;73.168;2023-04-24T13:10:38;18.00;15.67;6.33
73825;PMS5003;64145;55.060;73.168;2023-04-24T13:13:04;6.25;5.25;2.00
73825;PMS5003;64145;55.060;73.168;2023-04-24T13:15:40;6.00;6.00;2.50
73825;PMS5003;64145;55.060;73.168;2023-04-24T13:18:05;12.33;11.33;5.00
73825;PMS5003;64145;55.060;73.168;2023-04-24T13:20:31;17.67;15.00;8.00
73825;PMS5003;64145;55.060;73.168;2023-04-24T13:25:59;28.00;26.50;17.50
73825;PMS5003;64145;55.060;73.168;2023-04-24T13:31:15;25.00;23.50;15.75
73825;PMS5003;64145;55.060;73.168;2023-04-24T13:33:41;19.00;18.00;11.00
73825;PMS5003;64145;55.060;73.168;2023-04-24T13:36:07;17.00;15.33;7.33
73825;PMS5003;64145;55.060;73.168;2023-04-24T13:38:32;34.00;29.33;19.00
73825;PMS5003;64145;55.060;73.168;2023-04-24T13:40:58;58.00;46.67;32.00
73825;PMS5003;64145;55.060;73.168;2023-04-24T13:43:23;72.00;67.33;50.33
73825;PMS5003;64145;55.060;73.168;2023-04-24T13:45:49;68.67;63.33;47.67
73825;PMS5003;64145;55.060;73.168;2023-04-24T13:48:15;89.00;84.67;61.67
73825;PMS5003;64145;55.060;73.168;2023-04-24T13:50:59;75.75;70.50;50.75
73825;PMS5003;64145;55.060;73.168;2023-04-24T13:53:24;72.33;68.67;49.33
73825;PMS5003;64145;55.060;73.168;2023-04-24T13:58:39;37.00;31.00;22.00
73825;PMS5003;64145;55.060;73.168;2023-04-24T14:01:05;12.33;12.33;8.00
73825;PMS5003;64145;55.060;73.168;2023-04-24T14:03:40;1.00;1.00;0.00
73825;PMS5003;64145;55.060;73.168;2023-04-24T14:06:11;0.00;0.00;0.00
73825;PMS5003;64145;55.060;73.168;2023-04-24T14:09:05;0.00;0.00;0.00
73825;PMS5003;64145;55.060;73.168;2023-04-24T14:11:31;0.00;0.00;0.00
73825;PMS5003;64145;55.060;73.168;2023-04-24T14:16:50;2.50;0.00;0.00
73825;PMS5003;64145;55.060;73.168;2023-04-24T14:19:25;0.00;0.00;0.00
73825;PMS5003;64145;55.060;73.168;2023-04-24T14:21:51;0.00;0.00;0.00
73825;PMS5003;64145;55.060;73.168;2023-04-24T14:24:17;0.00;0.00;0.00
73825;PMS5003;64145;55.060;73.168;2023-04-24T14:26:42;0.00;0.00;0.00
73825;PMS5003;64145;55.060;73.168;2023-04-24T14:29:08;0.00;0.00;0.00
73825;PMS5003;64145;55.060;73.168;2023-04-24T14:31:52;0.00;0.00;0.00
73825;PMS5003;64145;55.060;73.168;2023-04-24T14:34:17;0.00;0.00;0.00
73825;PMS5003;64145;55.060;73.168;2023-04-24T14:36:53;0.00;0.00;0.00
73825;PMS5003;64145;55.060;73.168;2023-04-24T14:39:29;0.00;0.00;0.00
73825;PMS5003;64145;55.060;73.168;2023-04-24T14:41:55;0.00;0.00;0.00
73825;PMS5003;64145;55.060;73.168;2023-04-24T14:44:20;0.00;0.00;0.00
73825;PMS5003;64145;55.060;73.168;2023-04-24T14:46:46;0.00;0.00;0.00
73825;PMS5003;64145;55.060;73.168;2023-04-24T14:49:16;0.00;0.00;0.00
73825;PMS5003;64145;55.060;73.168;2023-04-24T14:51:42;0.00;0.00;0.00
73825;PMS5003;64145;55.060;73.168;2023-04-24T14:54:08;0.00;0.00;0.00
73825;PMS5003;64145;55.060;73.168;2023-04-24T14:56:34;0.00;0.00;0.00
73825;PMS5003;64145;55.060;73.168;2023-04-24T14:59:23;0.00;0.00;0.00
73825;PMS5003;64145;55.060;73.168;2023-04-24T15:01:53;0.00;0.00;0.00
73825;PMS5003;64145;55.060;73.168;2023-04-24T15:04:47;0.00;0.00;0.00
73825;PMS5003;64145;55.060;73.168;2023-04-24T15:09:58;0.00;0.00;0.00
73825;PMS5003;64145;55.060;73.168;2023-04-24T15:12:28;0.00;0.00;0.00
73825;PMS5003;64145;55.060;73.168;2023-04-24T15:14:54;2.00;0.00;0.00
73825;PMS5003;64145;55.060;73.168;2023-04-24T15:17:20;1.00;0.00;0.00
73825;PMS5003;64145;55.060;73.168;2023-04-24T15:20:04;1.75;0.00;0.00
73825;PMS5003;64145;55.060;73.168;2023-04-24T15:22:31;1.00;0.00;0.00
73825;PMS5003;64145;55.060;73.168;2023-04-24T15:24:57;1.00;1.00;0.00
73825;PMS5003;64145;55.060;73.168;2023-04-24T15:27:22;1.00;0.00;0.00
73825;PMS5003;64145;55.060;73.168;2023-04-24T15:29:48;0.00;0.00;0.00
73825;PMS5003;64145;55.060;73.168;2023-04-24T15:32:13;0.33;0.00;0.00
73825;PMS5003;64145;55.060;73.168;2023-04-24T15:34:39;0.00;0.00;0.00
73825;PMS5003;64145;55.060;73.168;2023-04-24T15:39:49;6.00;4.50;0.00
73825;PMS5003;64145;55.060;73.168;2023-04-24T15:42:15;13.50;9.00;5.00
73825;PMS5003;64145;55.060;73.168;2023-04-24T15:44:41;17.67;14.33;6.33
73825;PMS5003;64145;55.060;73.168;2023-04-24T15:47:06;35.33;27.67;15.67
73825;PMS5003;64145;55.060;73.168;2023-04-24T15:49:32;43.00;33.00;19.33
73825;PMS5003;64145;55.060;73.168;2023-04-24T15:51:58;49.00;38.00;22.67
73825;PMS5003;64145;55.060;73.168;2023-04-24T15:57:08;53.00;42.00;26.50
73825;PMS5003;64145;55.060;73.168;2023-04-24T15:59:44;41.50;33.75;22.75
73825;PMS5003;64145;55.060;73.168;2023-04-24T16:02:11;25.67;22.33;15.33
73825;PMS5003;64145;55.060;73.168;2023-04-24T16:04:43;26.50;25.50;15.00
73825;PMS5003;64145;55.060;73.168;2023-04-24T16:07:08;38.75;31.25;18.50
73825;PMS5003;64145;55.060;73.168;2023-04-24T16:09:53;38.25;31.25;19.00
73825;PMS5003;64145;55.060;73.168;2023-04-24T16:12:18;32.00;28.00;18.00
73825;PMS5003;64145;55.060;73.168;2023-04-24T16:14:44;24.67;22.00;13.00